Date,TemperatureHighF,TemperatureAvgF,TemperatureLowF,DewpointHighF,DewpointAvgF,DewpointLowF,HumidityHigh,HumidityAvg,HumidityLow,PressureMaxIn,PressureMinIn,WindSpeedMaxMPH,WindSpeedAvgMPH,GustSpeedMaxMPH,PrecipitationSumIn
2012-11-14,64,53,43,-100,-100,-100,0,0,100,0.00,40.00,0,-999,0,0.00
2012-11-15,63,50,39,-100,-100,-100,0,0,100,0.00,40.00,0,-999,0,0.00
2012-11-16,67,58,50,-100,-100,-100,0,0,100,0.00,40.00,0,-999,0,0.00
2012-11-17,67,51,36,-100,-100,-100,0,0,100,0.00,40.00,0,-999,0,0.00
2012-11-18,74,58,42,-100,-100,-100,0,0,100,0.00,40.00,0,-999,0,0.00
2012-11-19,73,63,54,-100,-100,-100,0,0,100,0.00,40.00,0,-999,0,0.00
2012-11-20,80,64,50,-100,-100,-100,0,0,100,0.00,40.00,0,-999,0,0.00
2012-11-21,77,63,52,-100,-100,-100,0,0,100,0.00,40.00,0,-999,0,0.00
2012-11-22,77,64,47,-100,-100,-100,0,0,100,0.00,40.00,0,-999,0,0.00
2012-11-23,70,62,54,-100,-100,-100,0,0,100,0.00,40.00,0,-999,0,0.00
2012-11-24,65,55,47,-100,-100,-100,0,0,100,0.00,40.00,0,-999,0,0.00
2012-11-25,73,58,41,-100,-100,-100,0,0,100,0.00,40.00,0,-999,0,0.00
2012-11-26,72,63,61,-100,-100,-100,0,0,100,0.00,40.00,0,-999,0,0.00
2012-11-27,58,51,44,-100,-100,-100,0,0,100,0.00,40.00,0,-999,0,0.00
2012-11-28,68,53,35,-100,-100,-100,0,0,100,0.00,40.00,0,-999,0,0.00
2012-11-29,69,55,38,-100,-100,-100,0,0,100,0.00,40.00,0,-999,0,0.00
2012-11-30,78,66,58,-100,-100,-100,0,0,100,0.00,40.00,0,-999,0,0.00
2012-12-1,80,72,68,-100,-100,-100,0,0,100,0.00,40.00,0,-999,0,0.00
2012-12-2,77,69,65,-100,-100,-100,0,0,100,0.00,40.00,0,-999,0,0.00
2012-12-3,80,69,64,-100,-100,-100,0,0,100,0.00,40.00,0,-999,0,0.00
2012-12-4,73,65,58,-100,-100,-100,0,0,100,0.00,40.00,0,-999,0,0.00
2012-12-5,69,56,49,-100,-100,-100,0,0,100,0.00,40.00,0,-999,0,0.00
2012-12-6,71,55,43,-100,-100,-100,0,0,100,0.00,40.00,0,-999,0,0.00
2012-12-7,77,66,54,-100,-100,-100,0,0,100,0.00,40.00,0,-999,0,0.00
2012-12-8,79,69,65,-100,-100,-100,0,0,100,0.00,40.00,0,-999,0,0.00
2012-12-9,77,69,54,-100,-100,-100,0,0,100,0.00,40.00,0,-999,0,0.00
2012-12-10,54,46,36,-100,-100,-100,0,0,100,0.00,40.00,0,-999,0,0.00
2012-12-11,52,36,29,-100,-100,-100,0,0,100,0.00,40.00,0,-999,0,0.00
2012-12-12,62,41,26,-100,-100,-100,0,0,100,0.00,40.00,0,-999,0,0.00
2012-12-13,65,49,31,-100,-100,-100,0,0,100,0.00,40.00,0,-999,0,0.00
2012-12-14,70,62,55,-100,-100,-100,0,0,100,0.00,40.00,0,-999,0,0.00
2012-12-15,71,66,62,-100,-100,-100,0,0,100,0.00,40.00,0,-999,0,0.00
2012-12-16,69,63,51,-100,-100,-100,0,0,100,0.00,40.00,0,-999,0,0.00
2012-12-17,72,57,44,-100,-100,-100,0,0,100,0.00,40.00,0,-999,0,0.00
2012-12-18,80,57,38,-100,-100,-100,0,0,100,0.00,40.00,0,-999,0,0.00
2012-12-19,81,72,66,-100,-100,-100,0,0,100,0.00,40.00,0,-999,0,0.00
2012-12-20,66,48,34,-100,-100,-100,0,0,100,0.00,40.00,0,-999,0,0.00
2012-12-21,59,43,28,-100,-100,-100,0,0,100,0.00,40.00,0,-999,0,0.00
2012-12-22,67,53,34,-100,-100,-100,0,0,100,0.00,40.00,0,-999,0,0.00
2012-12-23,66,61,57,-100,-100,-100,0,0,100,0.00,40.00,0,-999,0,0.00
2012-12-24,66,56,46,-100,-100,-100,0,0,100,0.00,40.00,0,-999,0,0.00
2012-12-25,69,60,38,-100,-100,-100,0,0,100,0.00,40.00,0,-999,0,0.00
2012-12-26,44,35,29,-100,-100,-100,0,0,100,0.00,40.00,0,-999,0,0.00
2012-12-27,45,40,29,-100,-100,-100,0,0,100,0.00,40.00,0,-999,0,0.00
2012-12-28,65,51,38,-100,-100,-100,0,0,100,0.00,40.00,0,-999,0,0.00
2012-12-29,48,39,32,-100,-100,-100,0,0,100,0.00,40.00,0,-999,0,0.00
2012-12-30,54,40,29,-100,-100,-100,0,0,100,0.00,40.00,0,-999,0,0.00
2012-12-31,64,53,47,-100,-100,-100,0,0,100,0.00,40.00,0,-999,0,0.00
2013-1-1,57,49,41,-100,-100,-100,0,0,100,0.00,40.00,0,-999,0,0.00